Terminal Aerodrome Forecast
Issued by NWS

Home | Current Version | Previous Version | Text Only | Print | Product List | Glossary On
Versions: 1 2 3 4 5 6 7 8 9 10 11 12 13 14 15 16 17 18 19
000
FTUS43 KDTX 191750
TAFPTK
TAF
KPTK 191750Z 1918/2018 23004KT P6SM SCT008
      TEMPO 1918/1921 6SM HZ BKN008
     FM200000 10004KT P6SM SCT004 OVC120
     FM200400 09005KT P6SM OVC006
     FM201200 04006KT 2SM -RA BR BKN005 OVC012
     FM201600 04006KT 3SM -DZ BR OVC005=

USA.gov is the U.S. government's official web portal to all federal, state and local government web resources and services.